createdAt,value
2023-01-12T00:02:49.199Z,86.88
2023-01-12T00:06:47.223Z,86.96
2023-01-12T00:10:45.141Z,86.94
2023-01-12T00:14:44.615Z,86.98
2023-01-12T00:18:42.453Z,87.03
2023-01-12T00:22:40.327Z,87.02
2023-01-12T00:26:38.824Z,87.00
2023-01-12T00:30:36.255Z,86.99
2023-01-12T00:34:34.123Z,87.04
2023-01-12T00:38:32.172Z,87.01
2023-01-12T00:42:48.234Z,87.01
2023-01-12T00:46:47.158Z,86.99
2023-01-12T00:50:45.271Z,86.99
2023-01-12T00:54:43.186Z,86.97
2023-01-12T00:58:43.116Z,86.94
2023-01-12T01:02:42.120Z,86.90
2023-01-12T01:06:41.118Z,86.92
2023-01-12T01:10:39.124Z,86.90
2023-01-12T01:14:37.067Z,86.87
2023-01-12T01:18:35.117Z,86.80
2023-01-12T01:22:33.057Z,86.81
2023-01-12T01:26:33.160Z,86.82
2023-01-12T01:30:31.146Z,86.81
2023-01-12T01:34:30.041Z,86.82
2023-01-12T01:38:28.121Z,86.78
2023-01-12T01:42:35.111Z,86.78
2023-01-12T01:46:40.111Z,86.75
2023-01-12T01:50:52.045Z,86.75
2023-01-12T01:54:58.536Z,86.74
2023-01-12T01:59:00.099Z,86.75
2023-01-12T02:03:00.010Z,86.77
2023-01-12T02:06:58.022Z,86.78
2023-01-12T02:10:55.994Z,86.78
2023-01-12T02:15:13.105Z,86.80
2023-01-12T02:19:46.989Z,86.80
2023-01-12T02:24:16.145Z,86.86
2023-01-12T02:28:38.034Z,86.86
2023-01-12T02:32:41.040Z,86.92
2023-01-12T02:37:10.114Z,86.99
2023-01-12T02:41:50.992Z,87.11
2023-01-12T02:46:08.948Z,87.17
2023-01-12T02:50:10.952Z,87.21
2023-01-12T02:54:17.971Z,87.27
2023-01-12T02:58:17.945Z,87.36
2023-01-12T03:02:35.947Z,87.42
2023-01-12T03:06:33.931Z,87.44
2023-01-12T03:10:40.907Z,87.50
2023-01-12T03:14:38.907Z,87.50
2023-01-12T03:18:42.912Z,87.54
2023-01-12T03:22:40.927Z,87.54
2023-01-12T03:26:41.901Z,87.56
2023-01-12T03:30:46.984Z,87.56
2023-01-12T03:34:46.910Z,87.58
2023-01-12T03:38:59.977Z,87.60
2023-01-12T03:43:03.892Z,87.58
2023-01-12T03:47:20.881Z,87.58
2023-01-12T03:51:31.973Z,87.62
2023-01-12T03:55:32.001Z,87.62
2023-01-12T03:59:29.854Z,87.85
2023-01-12T04:03:30.918Z,87.98
2023-01-12T04:07:29.863Z,88.06
2023-01-12T04:11:44.893Z,88.17
2023-01-12T04:15:44.874Z,88.16
2023-01-12T04:19:42.907Z,88.16
2023-01-12T04:23:40.901Z,88.14
2023-01-12T04:27:38.868Z,88.14
2023-01-12T04:31:36.976Z,88.19
2023-01-12T04:35:34.825Z,88.17
2023-01-12T04:39:32.873Z,88.16
2023-01-12T04:43:30.899Z,88.16
2023-01-12T04:47:28.969Z,88.11
2023-01-12T04:51:26.832Z,88.19
2023-01-12T04:55:24.777Z,88.19
2023-01-12T04:59:22.836Z,88.18
2023-01-12T05:03:20.883Z,88.21
2023-01-12T05:07:18.804Z,88.29
2023-01-12T05:11:16.758Z,88.30
2023-01-12T05:15:14.867Z,88.32
2023-01-12T05:19:12.805Z,88.36
2023-01-12T05:23:10.767Z,88.40
2023-01-12T05:27:08.728Z,88.44
2023-01-12T05:31:06.826Z,88.44
2023-01-12T05:35:04.725Z,88.45
2023-01-12T05:39:02.724Z,88.49
2023-01-12T05:43:18.715Z,88.50
2023-01-12T05:47:18.827Z,88.50
2023-01-12T05:51:17.828Z,88.50
2023-01-12T05:55:15.743Z,88.48
2023-01-12T05:59:15.702Z,88.45
2023-01-12T06:03:13.714Z,88.47
2023-01-12T06:07:11.691Z,88.47
2023-01-12T06:11:09.802Z,88.46
2023-01-12T06:15:07.742Z,88.46
2023-01-12T06:19:05.805Z,88.47
2023-01-12T06:23:03.807Z,88.45
2023-01-12T06:27:01.666Z,88.43
2023-01-12T06:30:59.837Z,88.38
2023-01-12T06:34:59.550Z,88.37
2023-01-12T06:38:59.617Z,88.36
2023-01-12T06:42:57.690Z,88.33
2023-01-12T06:46:55.682Z,88.24
2023-01-12T06:50:53.648Z,88.14
2023-01-12T06:54:51.639Z,88.11
2023-01-12T06:58:49.670Z,88.06
2023-01-12T07:02:27.161Z,87.96
2023-01-12T07:05:51.181Z,87.91
2023-01-12T07:09:15.416Z,87.80
2023-01-12T07:12:39.741Z,87.71
2023-01-12T07:16:03.831Z,87.48
2023-01-12T07:19:27.746Z,87.47
2023-01-12T07:22:51.725Z,87.46
2023-01-12T07:26:15.698Z,87.39
2023-01-12T07:29:39.840Z,87.35
2023-01-12T07:33:08.470Z,87.25
2023-01-12T07:36:32.601Z,87.23
2023-01-12T07:39:58.993Z,87.13
2023-01-12T07:43:23.793Z,86.88
2023-01-12T07:46:47.891Z,86.39
2023-01-12T07:50:13.096Z,86.34
2023-01-12T07:53:37.185Z,86.27
2023-01-12T07:57:01.056Z,86.02
2023-01-12T08:00:25.656Z,85.88
2023-01-12T08:03:49.619Z,85.96
2023-01-12T08:07:15.095Z,85.90
2023-01-12T08:10:39.415Z,85.72
2023-01-12T08:14:05.576Z,85.68
2023-01-12T08:17:29.705Z,85.58
2023-01-12T08:20:56.401Z,85.52
2023-01-12T08:24:26.123Z,85.50
2023-01-12T08:27:53.021Z,85.51
2023-01-12T08:34:54.965Z,85.41
2023-01-12T08:38:19.397Z,85.24
2023-01-12T08:41:45.278Z,84.76
2023-01-12T08:45:09.421Z,84.74
2023-01-12T08:48:33.550Z,84.60
2023-01-12T08:51:58.571Z,84.42
2023-01-12T08:55:22.588Z,84.08
2023-01-12T08:58:46.591Z,83.94
2023-01-12T09:02:16.068Z,83.59
2023-01-12T09:05:40.341Z,83.38
2023-01-12T09:09:10.151Z,83.20
2023-01-12T09:12:34.128Z,83.49
2023-01-12T09:16:12.219Z,83.36
2023-01-12T09:19:37.312Z,83.24
2023-01-12T09:23:05.497Z,83.17
2023-01-12T09:26:32.569Z,83.15
2023-01-12T09:29:56.668Z,83.39
2023-01-12T09:33:24.014Z,83.26
2023-01-12T09:36:50.077Z,83.39
2023-01-12T09:40:19.149Z,83.13
2023-01-12T09:44:01.323Z,83.27
2023-01-12T09:47:40.206Z,83.34
2023-01-12T09:51:18.784Z,83.27
2023-01-12T09:54:43.267Z,83.35
2023-01-12T09:58:31.372Z,83.49
2023-01-12T10:01:57.091Z,83.45
2023-01-12T10:05:39.682Z,83.30
2023-01-12T10:09:13.465Z,83.36
2023-01-12T10:12:42.275Z,83.49
2023-01-12T10:16:11.667Z,83.37
2023-01-12T10:19:56.892Z,83.26
2023-01-12T10:23:24.794Z,83.17
2023-01-12T10:26:58.142Z,83.05
2023-01-12T10:30:29.655Z,83.13
2023-01-12T10:34:07.071Z,83.05
2023-01-12T10:37:31.561Z,82.88
2023-01-12T10:41:17.253Z,82.69
2023-01-12T10:44:41.292Z,82.54
2023-01-12T10:48:18.185Z,82.66
2023-01-12T10:51:59.366Z,82.80
2023-01-12T10:55:25.340Z,82.91
2023-01-12T10:59:25.109Z,82.88
2023-01-12T11:02:49.331Z,82.97
2023-01-12T11:06:30.667Z,83.06
2023-01-12T11:09:55.325Z,83.01
2023-01-12T11:13:33.194Z,82.96
2023-01-12T11:17:12.295Z,82.75
2023-01-12T11:20:45.199Z,82.58
2023-01-12T11:24:40.229Z,82.64
2023-01-12T11:28:29.217Z,82.71
2023-01-12T11:31:59.358Z,82.74
2023-01-12T11:35:45.944Z,82.79
2023-01-12T11:39:16.091Z,82.88
2023-01-12T11:42:58.494Z,82.90
2023-01-12T11:46:42.665Z,82.94
2023-01-12T11:50:20.990Z,82.97
2023-01-12T11:53:46.153Z,82.97
2023-01-12T11:57:29.086Z,82.92
2023-01-12T12:01:17.476Z,82.93
2023-01-12T12:05:21.963Z,82.84
2023-01-12T12:09:19.953Z,82.79
2023-01-12T12:12:43.933Z,82.83
2023-01-12T12:16:11.461Z,82.87
2023-01-12T12:20:09.875Z,82.95
2023-01-12T12:23:44.920Z,82.94
2023-01-12T12:27:34.391Z,82.97
2023-01-12T12:31:13.960Z,83.03
2023-01-12T12:35:02.641Z,83.09
2023-01-12T12:39:04.343Z,83.08
2023-01-12T12:43:23.446Z,83.13
2023-01-12T12:47:00.302Z,83.19
2023-01-12T12:50:32.668Z,83.20
2023-01-12T12:53:57.310Z,83.16
2023-01-12T12:57:21.168Z,82.95
2023-01-12T13:00:46.845Z,82.76
2023-01-12T13:04:11.910Z,82.57
2023-01-12T13:07:41.946Z,82.59
2023-01-12T13:11:06.812Z,82.41
2023-01-12T13:14:39.638Z,82.14
2023-01-12T13:18:05.267Z,81.69
2023-01-12T13:21:56.259Z,81.60
2023-01-12T13:25:23.136Z,81.35
2023-01-12T13:28:47.050Z,81.43
2023-01-12T13:32:33.137Z,81.14
2023-01-12T13:36:02.102Z,80.90
2023-01-12T13:39:26.182Z,81.09
2023-01-12T13:43:09.652Z,80.83
2023-01-12T13:46:39.797Z,80.80
2023-01-12T13:50:05.231Z,80.64
2023-01-12T13:53:32.298Z,80.69
2023-01-12T13:57:02.935Z,80.65
2023-01-12T14:00:27.626Z,80.88
2023-01-12T14:04:22.894Z,80.96
2023-01-12T14:07:56.002Z,81.18
2023-01-12T14:11:28.963Z,81.30
2023-01-12T14:15:44.458Z,81.41
2023-01-12T14:19:29.418Z,81.59
2023-01-12T14:23:15.153Z,81.83
2023-01-12T14:26:39.193Z,82.01
2023-01-12T14:30:03.400Z,82.21
2023-01-12T14:38:07.054Z,82.88
2023-01-12T14:42:29.062Z,82.99
2023-01-12T14:46:37.029Z,83.14
2023-01-12T14:50:36.228Z,83.26
2023-01-12T14:54:38.111Z,83.35
2023-01-12T14:58:36.078Z,83.52
2023-01-12T15:02:43.974Z,83.89
2023-01-12T15:06:42.069Z,84.24
2023-01-12T15:10:53.021Z,84.42
2023-01-12T15:14:51.144Z,84.62
2023-01-12T15:19:06.027Z,84.74
2023-01-12T15:23:21.030Z,85.39
2023-01-12T15:27:18.988Z,85.77
2023-01-12T15:31:20.127Z,86.22
2023-01-12T15:35:25.080Z,86.32
2023-01-12T15:39:27.070Z,86.49
2023-01-12T15:43:29.962Z,86.77
2023-01-12T15:47:28.967Z,86.90
2023-01-12T15:51:30.397Z,86.93
2023-01-12T15:55:32.965Z,87.62
2023-01-12T15:59:30.936Z,87.92
2023-01-12T16:03:55.899Z,88.02
2023-01-12T16:07:48.571Z,87.73
2023-01-12T16:11:47.120Z,87.59
2023-01-12T16:15:47.007Z,87.78
2023-01-12T16:19:48.196Z,88.37
2023-01-12T16:23:46.924Z,88.51
2023-01-12T16:27:44.913Z,88.60
2023-01-12T16:31:42.922Z,88.58
2023-01-12T16:35:41.174Z,88.70
2023-01-12T16:39:39.105Z,88.68
2023-01-12T16:43:37.424Z,88.69
2023-01-12T16:47:36.083Z,88.70
2023-01-12T16:51:33.963Z,88.97
2023-01-12T16:55:31.896Z,89.51
2023-01-12T16:59:29.925Z,89.85
2023-01-12T17:03:27.970Z,89.84
2023-01-12T17:07:25.857Z,89.78
2023-01-12T17:11:25.816Z,89.74
2023-01-12T17:15:24.893Z,89.91
2023-01-12T17:19:23.143Z,90.33
2023-01-12T17:23:20.830Z,90.42
2023-01-12T17:27:18.942Z,90.34
2023-01-12T17:31:29.836Z,90.36
2023-01-12T17:35:27.805Z,90.32
2023-01-12T17:39:25.815Z,90.35
2023-01-12T17:43:25.771Z,90.36
2023-01-12T17:47:24.933Z,90.39
2023-01-12T17:51:22.899Z,90.41
2023-01-12T17:55:20.832Z,90.37
2023-01-12T17:59:19.775Z,90.33
2023-01-12T18:03:17.989Z,90.27
2023-01-12T18:07:15.760Z,90.21
2023-01-12T18:11:21.812Z,90.17
2023-01-12T18:15:20.728Z,90.15
2023-01-12T18:19:21.774Z,90.13
2023-01-12T18:23:19.767Z,90.08
2023-01-12T18:27:18.765Z,90.04
2023-01-12T18:31:22.801Z,90.00
2023-01-12T18:35:21.745Z,89.97
2023-01-12T18:39:22.768Z,89.98
2023-01-12T18:43:20.787Z,90.05
2023-01-12T18:47:35.764Z,90.00
2023-01-12T18:51:52.811Z,89.94
2023-01-12T18:55:50.777Z,89.91
2023-01-12T18:59:49.775Z,89.91
2023-01-12T19:03:47.801Z,89.88
2023-01-12T19:07:57.702Z,89.85
2023-01-12T19:11:55.819Z,89.78
2023-01-12T19:16:11.864Z,89.76
2023-01-12T19:20:21.965Z,89.74
2023-01-12T19:24:36.827Z,89.71
2023-01-12T19:28:41.677Z,89.76
2023-01-12T19:32:39.892Z,89.78
2023-01-12T19:36:37.645Z,89.81
2023-01-12T19:40:41.740Z,89.79
2023-01-12T19:44:39.634Z,89.78
2023-01-12T19:48:39.652Z,89.78
2023-01-12T19:52:37.739Z,89.77
2023-01-12T19:56:35.958Z,89.79
2023-01-12T20:00:33.598Z,89.76
2023-01-12T20:04:31.714Z,89.75
2023-01-12T20:08:29.624Z,89.75
2023-01-12T20:12:28.740Z,89.77
2023-01-12T20:16:27.816Z,89.74
2023-01-12T20:20:26.653Z,89.70
2023-01-12T20:24:26.683Z,89.68
2023-01-12T20:28:28.478Z,89.70
2023-01-12T20:32:26.656Z,89.70
2023-01-12T20:36:25.601Z,89.70
2023-01-12T20:40:25.654Z,89.74
2023-01-12T20:44:28.781Z,89.74
2023-01-12T20:48:26.646Z,89.78
2023-01-12T20:52:25.575Z,89.83
2023-01-12T20:56:25.542Z,89.84
2023-01-12T21:00:25.614Z,89.82
2023-01-12T21:04:25.527Z,89.85
2023-01-12T21:08:23.580Z,89.86
2023-01-12T21:12:21.576Z,89.79
2023-01-12T21:16:21.538Z,89.76
2023-01-12T21:20:24.533Z,89.74
2023-01-12T21:24:22.580Z,89.71
2023-01-12T21:28:20.455Z,89.67
2023-01-12T21:32:18.552Z,89.63
2023-01-12T21:36:17.479Z,89.58
2023-01-12T21:40:15.537Z,89.52
2023-01-12T21:44:15.550Z,89.52
2023-01-12T21:48:13.564Z,89.54
2023-01-12T21:52:11.526Z,89.56
2023-01-12T21:56:11.749Z,89.55
2023-01-12T22:00:09.452Z,89.57
2023-01-12T22:04:10.588Z,89.55
2023-01-12T22:08:08.423Z,89.60
2023-01-12T22:12:06.441Z,89.61
2023-01-12T22:16:04.815Z,89.60
2023-01-12T22:20:03.465Z,89.60
2023-01-12T22:24:01.475Z,89.67
2023-01-12T22:27:59.507Z,89.68
2023-01-12T22:31:57.513Z,89.64
2023-01-12T22:35:56.542Z,89.64
2023-01-12T22:39:54.447Z,89.66
2023-01-12T22:43:52.412Z,89.65
2023-01-12T22:47:50.474Z,89.71
2023-01-12T22:51:48.466Z,89.71
2023-01-12T22:55:46.383Z,89.70
2023-01-12T22:59:44.441Z,89.69
2023-01-12T23:03:42.500Z,89.68
2023-01-12T23:07:41.415Z,89.66
2023-01-12T23:11:42.452Z,89.65
2023-01-12T23:15:40.369Z,89.66
2023-01-12T23:19:38.353Z,89.65
2023-01-12T23:23:37.426Z,89.65
2023-01-12T23:27:36.374Z,89.60
2023-01-12T23:31:36.381Z,89.56
2023-01-12T23:35:34.319Z,89.48
2023-01-12T23:39:34.692Z,89.45
2023-01-12T23:43:32.315Z,89.41
2023-01-12T23:47:31.634Z,89.37
2023-01-12T23:51:31.320Z,89.31
2023-01-12T23:55:29.522Z,89.27
2023-01-12T23:59:27.301Z,89.22
